Time;durP1;ratioP1;P1;durP2;ratioP2;P2;SDS_P1;SDS_P2;PMS_P1;PMS_P2;Temp;Humidity;BMP_temperature;BMP_pressure;BME280_temperature;BME280_humidity;BME280_pressure;Samples;Min_cycle;Max_cycle;Signal;HPM_P1;HPM_P2
2021/11/26 00:02:22;;;;;;;4.60;3.35;;;12.30;63.30;;;;;;5002397;28;20187;-71
2021/11/26 00:04:49;;;;;;;6.25;3.97;;;12.30;63.10;;;;;;5017387;28;20026;-70
2021/11/26 00:07:15;;;;;;;4.78;3.45;;;12.40;63.20;;;;;;5017452;28;20025;-71
2021/11/26 00:09:41;;;;;;;3.63;3.13;;;12.30;63.20;;;;;;5002463;28;20502;-71
2021/11/26 00:12:07;;;;;;;5.03;3.08;;;12.30;63.30;;;;;;5002290;28;20351;-71
2021/11/26 00:14:36;;;;;;;4.78;3.30;;;12.30;63.30;;;;;;5000697;28;20030;-71
2021/11/26 00:17:04;;;;;;;5.50;4.10;;;12.30;63.20;;;;;;5017161;28;20136;-70
2021/11/26 00:19:31;;;;;;;5.18;3.55;;;12.30;63.20;;;;;;5017075;28;20018;-72
2021/11/26 00:21:57;;;;;;;4.57;3.95;;;12.30;63.20;;;;;;5016980;28;20026;-71
2021/11/26 00:24:24;;;;;;;5.32;3.63;;;12.30;63.20;;;;;;5001897;28;20032;-70
2021/11/26 00:26:50;;;;;;;4.53;3.30;;;12.30;63.20;;;;;;5001862;28;20034;-71
2021/11/26 00:29:17;;;;;;;4.95;3.65;;;12.30;63.20;;;;;;5001838;28;20361;-71
2021/11/26 00:31:43;;;;;;;6.63;3.92;;;12.30;63.20;;;;;;5001787;28;20440;-71
2021/11/26 00:34:10;;;;;;;4.25;3.83;;;12.30;63.30;;;;;;5001726;28;20034;-71
2021/11/26 00:36:36;;;;;;;5.63;3.45;;;12.30;63.30;;;;;;5001713;28;20017;-71
2021/11/26 00:39:04;;;;;;;4.18;2.97;;;12.30;63.20;;;;;;5001603;28;20023;-71
2021/11/26 00:41:30;;;;;;;3.67;3.33;;;12.30;63.20;;;;;;5001608;28;20022;-70
2021/11/26 00:43:56;;;;;;;4.45;3.10;;;12.30;63.10;;;;;;5001562;28;20233;-71
2021/11/26 00:46:22;;;;;;;4.45;3.67;;;12.30;63.20;;;;;;5001540;28;20030;-71
2021/11/26 00:48:48;;;;;;;4.35;3.25;;;12.30;63.20;;;;;;5001527;28;20073;-71
2021/11/26 00:51:14;;;;;;;5.78;3.45;;;12.30;63.20;;;;;;5001237;28;20054;-71
2021/11/26 00:53:40;;;;;;;4.65;3.33;;;12.30;63.90;;;;;;5001050;28;20053;-71
2021/11/26 00:56:06;;;;;;;4.95;3.40;;;12.30;63.20;;;;;;5001417;28;20033;-70
2021/11/26 00:58:32;;;;;;;4.43;3.58;;;12.30;63.20;;;;;;4999992;28;20050;-70
2021/11/26 01:00:58;;;;;;;5.57;3.60;;;12.40;63.20;;;;;;5001302;28;20073;-72
2021/11/26 01:03:24;;;;;;;5.75;4.60;;;12.30;63.20;;;;;;5001214;28;20026;-71
2021/11/26 01:05:50;;;;;;;5.03;3.75;;;12.30;63.20;;;;;;5001247;28;20594;-71
2021/11/26 01:08:17;;;;;;;4.57;3.15;;;12.30;63.30;;;;;;4999863;28;20356;-71
2021/11/26 01:10:44;;;;;;;6.15;3.97;;;12.30;63.50;;;;;;5001091;28;20101;-71
2021/11/26 01:13:10;;;;;;;7.50;3.55;;;12.30;63.20;;;;;;5001007;28;20090;-71
2021/11/26 01:15:36;;;;;;;4.63;3.28;;;12.30;63.20;;;;;;5015992;28;20022;-70
2021/11/26 01:18:02;;;;;;;5.05;3.70;;;12.30;63.30;;;;;;5000831;28;20100;-71
2021/11/26 01:20:30;;;;;;;4.63;3.80;;;12.30;63.30;;;;;;5001010;28;20553;-72
2021/11/26 01:22:56;;;;;;;4.97;3.25;;;12.40;63.30;;;;;;5000867;28;20061;-71
2021/11/26 01:25:23;;;;;;;4.20;3.67;;;12.30;63.20;;;;;;5015766;28;20045;-71
2021/11/26 01:27:49;;;;;;;4.00;3.47;;;12.30;63.30;;;;;;5015813;28;20040;-71
2021/11/26 01:32:52;;;;;;;6.43;4.00;;;12.30;63.20;;;;;;5000951;28;20024;-70
2021/11/26 01:35:18;;;;;;;5.38;4.22;;;12.30;63.30;;;;;;4999334;28;20054;-70
2021/11/26 01:37:44;;;;;;;5.93;4.20;;;12.30;63.20;;;;;;5000563;28;20356;-72
2021/11/26 01:40:11;;;;;;;5.68;3.70;;;12.30;63.10;;;;;;5000571;28;20097;-70
2021/11/26 01:42:36;;;;;;;4.75;3.88;;;12.30;63.20;;;;;;5000458;28;20029;-70
2021/11/26 01:45:03;;;;;;;5.40;4.05;;;12.30;63.20;;;;;;5015477;28;20547;-70
2021/11/26 01:47:29;;;;;;;5.18;3.70;;;12.40;63.20;;;;;;5000443;28;20129;-71
2021/11/26 01:49:55;;;;;;;6.00;3.83;;;12.30;63.20;;;;;;5000150;28;20026;-71
2021/11/26 01:52:22;;;;;;;5.60;3.97;;;12.40;63.30;;;;;;5015476;28;20109;-71
2021/11/26 01:54:47;;;;;;;4.97;3.55;;;12.30;63.20;;;;;;5000315;28;20101;-71
2021/11/26 01:57:16;;;;;;;5.18;3.85;;;12.30;63.10;;;;;;5000191;28;20030;-71
2021/11/26 01:59:42;;;;;;;5.38;3.97;;;12.30;63.20;;;;;;5015290;28;20222;-70
2021/11/26 02:02:09;;;;;;;6.32;4.20;;;12.30;63.20;;;;;;5000255;28;20037;-71
2021/11/26 02:04:34;;;;;;;5.80;3.88;;;12.30;63.20;;;;;;4998196;28;20034;-71
2021/11/26 02:07:00;;;;;;;5.00;3.72;;;12.30;63.20;;;;;;5000085;28;20053;-71
2021/11/26 02:09:26;;;;;;;5.35;3.67;;;12.30;63.80;;;;;;5000079;28;20038;-71
2021/11/26 02:11:51;;;;;;;5.50;3.90;;;12.30;63.20;;;;;;5000117;28;20034;-71
2021/11/26 02:14:17;;;;;;;5.07;4.07;;;12.30;63.10;;;;;;5000008;28;20046;-71
2021/11/26 02:16:45;;;;;;;5.07;3.22;;;12.30;63.10;;;;;;4999923;28;20133;-71
2021/11/26 02:19:12;;;;;;;4.65;3.40;;;12.40;63.20;;;;;;5014967;28;20042;-72
2021/11/26 02:21:38;;;;;;;5.10;3.80;;;12.30;63.20;;;;;;5000073;28;20030;-71
2021/11/26 02:24:05;;;;;;;6.10;3.80;;;12.30;63.20;;;;;;4999925;28;20030;-71
2021/11/26 02:26:40;;;;;;;5.53;4.07;;;12.40;63.30;;;;;;4998606;28;20041;-71
2021/11/26 02:29:07;;;;;;;5.47;4.05;;;12.30;63.20;;;;;;4999929;28;20102;-71
2021/11/26 02:31:33;;;;;;;4.45;3.60;;;12.30;63.20;;;;;;4999847;28;20030;-71
2021/11/26 02:33:59;;;;;;;5.57;3.92;;;12.30;63.20;;;;;;4999807;28;20222;-70
2021/11/26 02:36:25;;;;;;;4.97;3.90;;;12.30;63.20;;;;;;5014866;28;20025;-71
2021/11/26 02:38:50;;;;;;;4.47;3.58;;;12.30;63.20;;;;;;4998643;28;20014;-71
2021/11/26 02:41:16;;;;;;;5.18;3.70;;;12.30;63.10;;;;;;4999863;28;20022;-71
2021/11/26 02:43:42;;;;;;;5.55;3.65;;;12.30;63.10;;;;;;4999761;28;20081;-71
2021/11/26 02:46:08;;;;;;;4.13;3.45;;;12.40;63.20;;;;;;4999862;28;20248;-71
2021/11/26 02:48:33;;;;;;;4.55;3.53;;;12.40;63.90;;;;;;4999674;28;20026;-71
2021/11/26 02:50:59;;;;;;;4.07;3.20;;;12.30;63.20;;;;;;4997959;28;20089;-71
2021/11/26 02:53:25;;;;;;;4.53;3.83;;;12.30;63.20;;;;;;5014690;28;20069;-70
2021/11/26 02:55:51;;;;;;;5.32;4.05;;;12.40;63.20;;;;;;4999702;28;20602;-70
2021/11/26 02:58:17;;;;;;;4.32;3.42;;;12.40;63.20;;;;;;4999769;28;20060;-71
2021/11/26 03:00:47;;;;;;;6.45;3.50;;;12.40;63.20;;;;;;5014603;28;20026;-71
2021/11/26 03:03:13;;;;;;;5.18;3.75;;;12.40;63.20;;;;;;4998396;28;20440;-70
2021/11/26 03:05:39;;;;;;;5.00;3.58;;;12.30;63.20;;;;;;5014663;28;20030;-72
2021/11/26 03:08:05;;;;;;;5.03;3.50;;;12.40;63.10;;;;;;4998300;28;20052;-71
2021/11/26 03:10:31;;;;;;;5.10;3.75;;;12.30;63.10;;;;;;4999421;28;20041;-71
2021/11/26 03:13:00;;;;;;;4.45;3.15;;;12.40;63.10;;;;;;4999617;28;20034;-71
2021/11/26 03:15:31;;;;;;;5.05;3.47;;;12.30;63.10;;;;;;5000622;28;20053;-71
2021/11/26 03:17:57;;;;;;;5.43;3.58;;;12.30;63.10;;;;;;5003273;28;20054;-72
2021/11/26 03:20:24;;;;;;;5.50;3.58;;;12.40;63.20;;;;;;5003180;28;20583;-71
2021/11/26 03:22:50;;;;;;;5.20;3.92;;;12.30;63.20;;;;;;5003214;28;20029;-72
2021/11/26 03:25:16;;;;;;;4.82;3.75;;;12.30;63.20;;;;;;5001768;28;20018;-72
2021/11/26 03:27:43;;;;;;;4.20;3.33;;;12.40;63.20;;;;;;5003029;28;20026;-72
2021/11/26 03:30:12;;;;;;;3.72;3.33;;;12.30;63.20;;;;;;5002991;28;20026;-71
2021/11/26 03:32:38;;;;;;;5.22;3.53;;;12.30;63.30;;;;;;5018117;28;20030;-70
2021/11/26 03:35:05;;;;;;;5.43;3.58;;;12.30;63.20;;;;;;5017921;28;20038;-71
2021/11/26 03:37:31;;;;;;;4.10;3.35;;;12.30;63.10;;;;;;5002866;28;20530;-72
2021/11/26 03:39:57;;;;;;;4.22;3.50;;;12.40;63.10;;;;;;5002764;28;20033;-72
2021/11/26 03:42:23;;;;;;;5.75;4.10;;;12.30;63.10;;;;;;5001488;28;20023;-71
2021/11/26 03:44:49;;;;;;;4.68;3.33;;;12.40;63.20;;;;;;5017754;28;20068;-72
2021/11/26 03:47:14;;;;;;;5.13;3.47;;;12.40;63.20;;;;;;5002708;28;20332;-71
2021/11/26 03:49:40;;;;;;;6.28;4.03;;;12.30;63.10;;;;;;5001303;28;20026;-75
2021/11/26 03:52:06;;;;;;;4.22;3.60;;;12.30;63.10;;;;;;5002512;28;20062;-71
2021/11/26 03:54:32;;;;;;;6.03;3.45;;;12.30;63.10;;;;;;5001181;28;20258;-71
2021/11/26 03:56:58;;;;;;;5.22;3.83;;;12.40;63.10;;;;;;5017579;28;20026;-71
2021/11/26 03:59:24;;;;;;;4.95;3.58;;;12.30;63.10;;;;;;5002397;28;20396;-71
2021/11/26 04:01:50;;;;;;;5.72;4.13;;;12.30;63.20;;;;;;5017476;28;20021;-71
2021/11/26 04:04:15;;;;;;;4.93;3.33;;;12.30;63.20;;;;;;5001064;28;20053;-71
2021/11/26 04:06:41;;;;;;;5.63;3.95;;;12.30;63.20;;;;;;5002214;28;20034;-72
2021/11/26 04:09:07;;;;;;;5.10;3.90;;;12.30;63.10;;;;;;5002287;28;20226;-71
2021/11/26 04:11:32;;;;;;;4.63;3.45;;;12.30;63.20;;;;;;5002205;28;20034;-71
2021/11/26 04:13:58;;;;;;;4.68;3.45;;;12.30;63.20;;;;;;5000852;28;20105;-72
2021/11/26 04:16:24;;;;;;;4.18;3.00;;;12.30;63.10;;;;;;5017148;28;20090;-72
2021/11/26 04:18:49;;;;;;;3.92;3.08;;;12.40;63.10;;;;;;5017144;28;20018;-71
2021/11/26 04:21:16;;;;;;;3.85;3.45;;;12.40;63.10;;;;;;5002029;28;20022;-71
2021/11/26 04:23:44;;;;;;;4.53;3.30;;;12.30;63.10;;;;;;5001965;28;20278;-72
2021/11/26 04:26:10;;;;;;;4.60;3.50;;;12.40;63.20;;;;;;5001897;28;20018;-72
2021/11/26 04:28:35;;;;;;;4.88;2.85;;;12.30;63.20;;;;;;5001288;28;20328;-71
2021/11/26 04:31:03;;;;;;;3.90;3.13;;;12.30;63.10;;;;;;5001794;28;20069;-71
2021/11/26 04:33:31;;;;;;;4.32;3.58;;;12.40;63.10;;;;;;5016858;28;20081;-74
2021/11/26 04:35:57;;;;;;;5.18;3.53;;;12.30;63.10;;;;;;5001855;28;20233;-71
2021/11/26 04:38:22;;;;;;;5.03;3.80;;;12.30;63.70;;;;;;5001665;28;20068;-71
2021/11/26 04:40:48;;;;;;;4.20;3.28;;;12.40;63.10;;;;;;5001719;28;20306;-71
2021/11/26 04:43:14;;;;;;;5.30;3.45;;;12.30;63.10;;;;;;5001590;28;20026;-71
2021/11/26 04:45:40;;;;;;;6.18;3.70;;;12.40;63.20;;;;;;5001591;28;20022;-70
2021/11/26 04:48:06;;;;;;;4.47;3.25;;;12.30;63.20;;;;;;5001615;28;20363;-71
2021/11/26 04:50:32;;;;;;;4.30;3.40;;;12.30;63.10;;;;;;5001346;28;20058;-71
2021/11/26 04:52:58;;;;;;;4.00;3.42;;;12.40;63.30;;;;;;5001563;28;20057;-71
2021/11/26 04:55:24;;;;;;;5.85;3.67;;;12.40;63.20;;;;;;5001310;28;20321;-72
2021/11/26 04:57:50;;;;;;;4.57;3.47;;;12.30;63.20;;;;;;5000108;28;20309;-71
2021/11/26 05:00:18;;;;;;;5.20;3.45;;;12.30;63.20;;;;;;5001355;28;20026;-71
2021/11/26 05:02:45;;;;;;;4.47;3.28;;;12.40;63.20;;;;;;5001270;28;20046;-71
2021/11/26 05:05:11;;;;;;;4.25;3.42;;;12.30;63.10;;;;;;5016267;28;20064;-72
2021/11/26 05:07:37;;;;;;;4.57;3.50;;;12.40;63.20;;;;;;5001256;28;20026;-71
2021/11/26 05:10:04;;;;;;;5.05;3.75;;;12.40;63.20;;;;;;5001086;28;20053;-71
2021/11/26 05:12:44;;;;;;;4.80;3.70;;;12.40;63.10;;;;;;4999823;28;20023;-71
2021/11/26 05:15:10;;;;;;;4.93;3.40;;;12.30;63.10;;;;;;4999763;28;20048;-71
2021/11/26 05:17:36;;;;;;;5.68;3.50;;;12.40;63.20;;;;;;5000997;28;20034;-71
2021/11/26 05:20:02;;;;;;;4.43;3.08;;;12.30;63.20;;;;;;4999601;28;20022;-71
2021/11/26 05:22:28;;;;;;;5.93;3.92;;;12.40;63.20;;;;;;5015929;28;20680;-71
2021/11/26 05:24:54;;;;;;;4.57;3.70;;;12.30;63.30;;;;;;5000780;28;20034;-72
2021/11/26 05:27:19;;;;;;;4.05;3.30;;;12.30;63.20;;;;;;5000780;28;20022;-71
2021/11/26 05:29:45;;;;;;;5.18;3.80;;;12.40;63.30;;;;;;5000734;28;20014;-71
2021/11/26 05:32:11;;;;;;;4.18;3.58;;;12.30;63.20;;;;;;5000685;28;20053;-71
2021/11/26 05:34:38;;;;;;;5.05;3.55;;;12.30;63.20;;;;;;4999327;28;20030;-71
2021/11/26 05:37:03;;;;;;;5.65;4.18;;;12.30;63.20;;;;;;5000586;28;20246;-71
2021/11/26 05:39:29;;;;;;;4.45;3.50;;;12.30;63.20;;;;;;5014705;28;20053;-72
2021/11/26 05:41:55;;;;;;;4.60;3.08;;;12.30;63.20;;;;;;5015677;28;20021;-71
2021/11/26 05:44:20;;;;;;;5.72;3.67;;;12.30;63.20;;;;;;5015560;28;20101;-71
2021/11/26 05:46:46;;;;;;;4.13;3.70;;;12.30;63.20;;;;;;5000491;28;20026;-71
2021/11/26 05:49:12;;;;;;;4.68;3.65;;;12.30;63.20;;;;;;5000412;28;20037;-71
2021/11/26 05:51:38;;;;;;;6.57;4.03;;;12.30;63.20;;;;;;5000271;28;20057;-71
2021/11/26 05:54:04;;;;;;;4.30;3.35;;;12.40;63.20;;;;;;5000275;28;20041;-72
2021/11/26 05:56:30;;;;;;;4.18;3.13;;;12.30;63.20;;;;;;5000303;28;20010;-71
2021/11/26 05:58:55;;;;;;;4.15;3.47;;;12.30;63.10;;;;;;5000304;28;20015;-70
2021/11/26 06:01:21;;;;;;;5.07;3.67;;;12.30;63.10;;;;;;5000177;28;20030;-71
2021/11/26 06:03:47;;;;;;;5.10;3.75;;;12.30;63.20;;;;;;4998927;28;20026;-70
2021/11/26 06:06:13;;;;;;;5.45;3.75;;;12.30;63.20;;;;;;5015263;28;20435;-71
2021/11/26 06:08:38;;;;;;;5.47;4.00;;;12.40;63.20;;;;;;5000197;28;20014;-70
2021/11/26 06:11:04;;;;;;;3.80;3.20;;;12.30;63.10;;;;;;5000086;28;20038;-71
2021/11/26 06:13:30;;;;;;;4.10;3.10;;;12.30;63.10;;;;;;5000016;28;20026;-71
2021/11/26 06:15:56;;;;;;;4.70;3.33;;;12.30;63.10;;;;;;5000045;28;20334;-70
2021/11/26 06:18:21;;;;;;;4.65;3.78;;;12.30;63.10;;;;;;5000001;28;20052;-71
2021/11/26 06:20:47;;;;;;;4.20;3.47;;;12.30;63.10;;;;;;5000017;28;20030;-71
2021/11/26 06:23:13;;;;;;;4.10;3.33;;;12.30;63.10;;;;;;4999868;28;20026;-71
2021/11/26 06:25:39;;;;;;;4.15;3.40;;;12.40;63.20;;;;;;4999914;28;20061;-71
2021/11/26 06:28:05;;;;;;;3.17;2.85;;;12.30;63.20;;;;;;4999874;28;20019;-71
2021/11/26 06:30:31;;;;;;;4.65;3.90;;;12.30;63.20;;;;;;4999928;28;20026;-71
2021/11/26 06:32:57;;;;;;;4.80;4.00;;;12.40;63.20;;;;;;4999925;28;20033;-70
2021/11/26 06:35:25;;;;;;;3.90;3.30;;;12.40;63.20;;;;;;5014825;28;20026;-71
2021/11/26 06:37:52;;;;;;;5.40;3.95;;;12.30;63.70;;;;;;4999863;28;20019;-71
2021/11/26 06:40:19;;;;;;;5.25;3.75;;;12.30;63.20;;;;;;4999902;28;20053;-71
2021/11/26 06:42:46;;;;;;;4.47;3.50;;;12.30;63.20;;;;;;4999726;28;20438;-71
2021/11/26 06:45:12;;;;;;;5.53;3.28;;;12.40;63.20;;;;;;4998519;28;20030;-71
2021/11/26 06:47:39;;;;;;;4.65;3.55;;;12.40;63.20;;;;;;5014902;28;20206;-71
2021/11/26 06:50:07;;;;;;;5.00;3.25;;;12.40;63.10;;;;;;5000227;28;20025;-71
2021/11/26 06:52:33;;;;;;;3.78;3.17;;;12.30;63.10;;;;;;5002355;28;20233;-71
2021/11/26 06:55:00;;;;;;;5.15;3.58;;;12.30;63.10;;;;;;5018720;28;20046;-71
2021/11/26 06:57:26;;;;;;;5.32;3.95;;;12.40;63.10;;;;;;5003666;28;20029;-71
2021/11/26 06:59:53;;;;;;;5.85;4.18;;;12.40;63.20;;;;;;5003602;28;20026;-72
2021/11/26 07:02:19;;;;;;;5.13;3.90;;;12.30;63.10;;;;;;5003528;28;20336;-72
2021/11/26 07:04:46;;;;;;;4.18;3.08;;;12.40;63.10;;;;;;5003513;28;20030;-71
2021/11/26 07:07:12;;;;;;;4.75;3.53;;;12.40;63.10;;;;;;5003377;28;20064;-71
2021/11/26 07:09:39;;;;;;;5.38;3.80;;;12.40;63.10;;;;;;5018537;28;20037;-71
2021/11/26 07:12:09;;;;;;;5.30;3.47;;;12.30;63.10;;;;;;5003414;28;20314;-70
2021/11/26 07:14:37;;;;;;;4.80;3.40;;;12.40;63.10;;;;;;5018316;28;20343;-71
2021/11/26 07:17:03;;;;;;;4.55;3.75;;;12.40;63.10;;;;;;5018266;28;20333;-71
2021/11/26 07:19:28;;;;;;;5.05;3.33;;;12.40;63.10;;;;;;5003257;28;20032;-72
2021/11/26 07:21:54;;;;;;;3.33;3.00;;;12.40;63.10;;;;;;5003120;28;20041;-71
2021/11/26 07:24:20;;;;;;;3.55;3.22;;;12.40;63.10;;;;;;5003090;28;20022;-71
2021/11/26 07:26:46;;;;;;;4.85;3.58;;;12.30;63.10;;;;;;5018216;28;20072;-71
2021/11/26 07:29:11;;;;;;;5.32;3.58;;;12.30;63.10;;;;;;5001769;28;20073;-70
2021/11/26 07:31:37;;;;;;;3.90;3.22;;;12.40;63.10;;;;;;5003014;28;20034;-71
2021/11/26 07:34:03;;;;;;;4.20;3.40;;;12.40;63.10;;;;;;5001520;28;20105;-70
2021/11/26 07:36:29;;;;;;;5.22;3.55;;;12.40;63.80;;;;;;5002939;28;20141;-71
2021/11/26 07:38:55;;;;;;;4.57;3.55;;;12.40;63.00;;;;;;5002848;28;20304;-71
2021/11/26 07:41:22;;;;;;;4.32;3.28;;;12.40;63.00;;;;;;5017905;28;20065;-71
2021/11/26 07:43:48;;;;;;;5.07;4.22;;;12.40;63.00;;;;;;5002823;28;20038;-71
2021/11/26 07:46:14;;;;;;;4.15;3.08;;;12.40;63.00;;;;;;5002707;28;20029;-71
2021/11/26 07:48:39;;;;;;;5.45;3.67;;;12.40;63.00;;;;;;5002636;28;20050;-72
2021/11/26 07:51:05;;;;;;;4.85;3.40;;;12.40;63.00;;;;;;5002485;28;20342;-72
2021/11/26 07:53:32;;;;;;;4.28;3.00;;;12.40;63.00;;;;;;5001280;28;20022;-71
2021/11/26 07:55:58;;;;;;;4.55;3.63;;;12.40;63.00;;;;;;5002594;28;20041;-71
2021/11/26 07:58:24;;;;;;;3.80;3.28;;;12.40;62.90;;;;;;5002580;28;20068;-71
2021/11/26 08:00:50;;;;;;;4.55;3.53;;;12.40;62.90;;;;;;5002423;28;20022;-71
2021/11/26 08:03:18;;;;;;;4.28;3.45;;;12.40;62.90;;;;;;5001304;28;20027;-71
2021/11/26 08:05:44;;;;;;;4.97;3.30;;;12.40;62.90;;;;;;5017482;28;20226;-71
2021/11/26 08:08:11;;;;;;;3.47;2.90;;;12.40;62.90;;;;;;5002451;28;20033;-70
2021/11/26 08:10:38;;;;;;;4.10;3.00;;;12.40;62.90;;;;;;5001053;28;20030;-72
2021/11/26 08:13:05;;;;;;;4.80;3.42;;;12.40;62.90;;;;;;5002225;28;20034;-72
2021/11/26 08:15:32;;;;;;;5.35;4.00;;;12.50;62.90;;;;;;5000871;28;20033;-71
2021/11/26 08:17:59;;;;;;;4.82;3.33;;;12.50;62.80;;;;;;5002190;28;20025;-72
2021/11/26 08:20:26;;;;;;;5.22;3.40;;;12.40;62.80;;;;;;5002196;28;20025;-71
2021/11/26 08:22:52;;;;;;;4.00;3.13;;;12.50;62.90;;;;;;5002051;28;20022;-72
2021/11/26 08:25:21;;;;;;;4.18;3.45;;;12.40;62.80;;;;;;5002136;28;20321;-71
2021/11/26 08:27:47;;;;;;;4.75;3.80;;;12.50;62.80;;;;;;5002037;28;20066;-71
2021/11/26 08:30:13;;;;;;;4.18;3.38;;;12.40;62.70;;;;;;5001921;28;20041;-71
2021/11/26 08:32:39;;;;;;;4.47;3.42;;;12.40;62.80;;;;;;5000553;28;20026;-71
2021/11/26 08:35:06;;;;;;;4.07;3.10;;;12.40;62.80;;;;;;5001784;28;20313;-71
2021/11/26 08:37:32;;;;;;;4.28;3.15;;;12.40;62.90;;;;;;5016795;28;20317;-71
2021/11/26 08:39:59;;;;;;;4.32;3.70;;;12.40;62.90;;;;;;5001790;28;20022;-71
2021/11/26 08:42:24;;;;;;;4.68;3.42;;;12.40;62.90;;;;;;5001747;28;20052;-71
2021/11/26 08:44:50;;;;;;;4.20;3.25;;;12.50;62.90;;;;;;5001734;28;20109;-72
2021/11/26 08:47:16;;;;;;;4.63;3.88;;;12.40;62.80;;;;;;5016713;28;20030;-72
2021/11/26 08:49:42;;;;;;;4.28;3.50;;;12.40;62.90;;;;;;5016529;28;20037;-72
2021/11/26 08:52:09;;;;;;;4.43;3.40;;;12.50;62.90;;;;;;5001416;28;20058;-71
2021/11/26 08:54:35;;;;;;;3.40;2.97;;;12.50;62.80;;;;;;5016441;28;20031;-72
2021/11/26 08:57:02;;;;;;;4.28;3.13;;;12.50;62.80;;;;;;5001395;28;20030;-71
2021/11/26 08:59:27;;;;;;;4.50;3.45;;;12.50;62.80;;;;;;5001415;28;20321;-69
2021/11/26 09:01:54;;;;;;;3.83;3.25;;;12.50;62.80;;;;;;5001249;28;20053;-71
2021/11/26 09:04:24;;;;;;;4.78;3.75;;;12.50;62.90;;;;;;5001361;28;20026;-71
2021/11/26 09:06:52;;;;;;;4.10;3.60;;;12.50;62.80;;;;;;5001157;28;20237;-72
2021/11/26 09:09:22;;;;;;;4.13;3.40;;;12.50;62.90;;;;;;5001211;28;20023;-70
2021/11/26 09:11:48;;;;;;;4.30;2.97;;;12.50;62.90;;;;;;5016336;28;20102;-71
2021/11/26 09:14:14;;;;;;;4.43;3.10;;;12.50;62.90;;;;;;5000769;28;20022;-71
2021/11/26 09:16:40;;;;;;;4.18;3.28;;;12.50;62.80;;;;;;4999733;28;20094;-71
2021/11/26 09:19:07;;;;;;;5.22;3.40;;;12.50;62.90;;;;;;5001248;28;20064;-71
2021/11/26 09:21:34;;;;;;;3.25;2.90;;;12.50;62.80;;;;;;5000938;28;20030;-73
2021/11/26 09:24:00;;;;;;;4.78;3.42;;;12.50;62.80;;;;;;5000933;28;20089;-71
2021/11/26 09:26:26;;;;;;;3.78;3.10;;;12.50;62.90;;;;;;5000904;28;20049;-72
2021/11/26 09:28:52;;;;;;;4.10;3.20;;;12.50;62.90;;;;;;5000800;28;20030;-72
2021/11/26 09:31:18;;;;;;;4.40;3.00;;;12.50;62.90;;;;;;5000840;28;20050;-72
2021/11/26 09:33:43;;;;;;;5.03;3.10;;;12.50;62.80;;;;;;5000724;28;20048;-72
2021/11/26 09:36:11;;;;;;;3.45;2.90;;;12.50;62.70;;;;;;5000721;28;20036;-71
2021/11/26 09:38:42;;;;;;;4.85;3.35;;;12.60;62.80;;;;;;5000752;28;20081;-72
2021/11/26 09:41:10;;;;;;;3.63;3.30;;;12.50;62.70;;;;;;5015728;28;20033;-71
2021/11/26 09:43:36;;;;;;;3.58;3.00;;;12.50;62.80;;;;;;5000538;28;20041;-71
2021/11/26 09:46:05;;;;;;;4.25;3.20;;;12.50;62.80;;;;;;5000530;28;20030;-71
2021/11/26 09:48:33;;;;;;;4.32;3.72;;;12.50;62.80;;;;;;5000468;28;20309;-71
2021/11/26 09:50:59;;;;;;;5.63;4.03;;;12.50;62.80;;;;;;5000345;28;20066;-71
2021/11/26 09:53:27;;;;;;;4.63;3.30;;;12.50;62.80;;;;;;5000672;28;20369;-71
2021/11/26 09:55:57;;;;;;;4.20;3.25;;;12.50;62.80;;;;;;5015409;28;20037;-71
2021/11/26 09:58:24;;;;;;;4.60;3.40;;;12.50;62.80;;;;;;5000304;28;20034;-71
2021/11/26 10:00:51;;;;;;;5.53;3.63;;;12.50;62.80;;;;;;5000184;28;20011;-72
2021/11/26 10:03:17;;;;;;;3.55;3.25;;;12.50;62.80;;;;;;5015444;28;20101;-72
2021/11/26 10:05:47;;;;;;;4.70;3.63;;;12.50;62.80;;;;;;5000144;28;20033;-72
2021/11/26 10:08:21;;;;;;;4.85;3.00;;;12.50;62.80;;;;;;4999977;28;20026;-71
2021/11/26 10:10:47;;;;;;;4.38;3.35;;;12.50;62.80;;;;;;4999967;28;20026;-72
2021/11/26 10:13:16;;;;;;;3.67;3.17;;;12.50;62.80;;;;;;5014924;28;20052;-71
2021/11/26 10:15:50;;;;;;;3.92;3.10;;;12.50;62.60;;;;;;4998635;28;20030;-73
2021/11/26 10:18:19;;;;;;;5.15;3.78;;;12.60;62.60;;;;;;5000083;28;20353;-71
2021/11/26 10:21:09;;;;;;;3.85;3.00;;;12.60;62.60;;;;;;5000003;28;20384;-72
2021/11/26 10:23:42;;;;;;;3.33;2.95;;;12.50;62.70;;;;;;4999990;28;20018;-71
2021/11/26 10:26:21;;;;;;;4.65;3.08;;;12.50;62.70;;;;;;4999470;28;20030;-72
2021/11/26 10:29:01;;;;;;;3.95;3.10;;;12.50;62.80;;;;;;4999973;28;20362;-71
2021/11/26 10:31:30;;;;;;;3.90;3.50;;;12.50;62.80;;;;;;4999877;28;20030;-70
2021/11/26 10:33:58;;;;;;;;;;;12.50;62.80;;;;;;5000204;28;20054;-72
2021/11/26 10:36:28;;;;;;;5.55;3.70;;;12.50;62.80;;;;;;5014987;28;19909;-71
2021/11/26 10:38:54;;;;;;;3.60;3.30;;;12.50;62.70;;;;;;4998495;28;20022;-72
2021/11/26 10:41:39;;;;;;;4.28;3.30;;;12.50;62.70;;;;;;4999725;28;20025;-72
2021/11/26 10:44:13;;;;;;;4.13;3.28;;;12.50;62.70;;;;;;4999785;28;20069;-71
2021/11/26 10:58:33;;;;;;;4.72;3.22;;;12.60;62.70;;;;;;4987781;28;20045;-71
2021/11/26 11:01:02;;;;;;;4.70;2.85;;;12.60;62.60;;;;;;4999554;28;20026;-72
2021/11/26 11:03:28;;;;;;;3.38;2.88;;;12.60;62.60;;;;;;5014724;28;20026;-70
2021/11/26 11:05:53;;;;;;;3.80;3.00;;;12.60;62.80;;;;;;4999506;28;20105;-71
2021/11/26 11:08:22;;;;;;;4.97;3.45;;;12.50;62.80;;;;;;4999593;28;20026;-71
2021/11/26 11:10:48;;;;;;;4.80;3.38;;;12.50;62.80;;;;;;4999621;28;20361;-71
2021/11/26 11:13:18;;;;;;;4.30;3.10;;;12.50;62.80;;;;;;4999468;28;20042;-71
2021/11/26 11:15:46;;;;;;;4.32;3.25;;;12.50;63.40;;;;;;4998056;28;20101;-72
2021/11/26 11:18:13;;;;;;;4.38;3.63;;;12.50;62.80;;;;;;4999393;28;20089;-71
2021/11/26 11:20:40;;;;;;;4.35;3.17;;;12.50;62.80;;;;;;4999441;28;20072;-71
2021/11/26 11:23:07;;;;;;;3.75;3.25;;;12.50;62.80;;;;;;4999401;28;20304;-71
2021/11/26 11:25:33;;;;;;;4.00;2.97;;;12.60;62.80;;;;;;4999320;28;20269;-71
2021/11/26 11:28:05;;;;;;;4.55;3.13;;;12.60;62.80;;;;;;4999408;28;20393;-71
2021/11/26 11:30:31;;;;;;;4.68;3.42;;;12.50;62.70;;;;;;5014468;28;20031;-72
2021/11/26 11:32:57;;;;;;;4.72;3.47;;;12.60;62.80;;;;;;5014374;28;20102;-72
2021/11/26 11:35:26;;;;;;;4.57;3.30;;;12.60;62.80;;;;;;5014224;28;20041;-72
2021/11/26 11:37:54;;;;;;;4.43;2.90;;;12.60;62.70;;;;;;5002422;28;20026;-72
2021/11/26 11:40:30;;;;;;;4.25;3.42;;;12.60;62.80;;;;;;5001793;28;20057;-72
2021/11/26 11:43:08;;;;;;;3.53;3.08;;;12.60;62.80;;;;;;5002844;28;20037;-71
2021/11/26 11:45:34;;;;;;;3.53;3.22;;;12.60;62.80;;;;;;5002821;28;20104;-72
2021/11/26 11:48:00;;;;;;;4.63;3.30;;;12.50;62.80;;;;;;5002680;28;20029;-72
2021/11/26 11:50:28;;;;;;;3.97;3.22;;;12.50;62.80;;;;;;5002441;28;20046;-71
2021/11/26 11:53:00;;;;;;;4.13;2.80;;;12.60;62.90;;;;;;5002215;28;20030;-72
2021/11/26 11:55:30;;;;;;;4.03;3.22;;;12.60;62.80;;;;;;5001282;28;20064;-72
2021/11/26 11:58:13;;;;;;;3.50;3.20;;;12.60;62.80;;;;;;5001232;28;20023;-73
2021/11/26 12:00:40;;;;;;;3.50;3.03;;;12.60;62.80;;;;;;5002511;28;20044;-73
2021/11/26 12:03:21;;;;;;;3.58;2.97;;;12.60;62.80;;;;;;5002422;28;20022;-72
2021/11/26 12:05:59;;;;;;;4.95;3.33;;;12.60;62.80;;;;;;5002515;28;20047;-71
2021/11/26 12:08:25;;;;;;;3.65;3.35;;;12.60;62.80;;;;;;5002339;28;20064;-71
2021/11/26 12:10:56;;;;;;;3.40;2.92;;;12.50;62.80;;;;;;5002310;28;20329;-70
2021/11/26 12:13:30;;;;;;;3.95;2.92;;;12.60;62.80;;;;;;5001011;28;20036;-72
2021/11/26 12:16:09;;;;;;;4.80;3.40;;;12.50;62.80;;;;;;5002129;28;20092;-71
2021/11/26 12:18:45;;;;;;;4.03;2.97;;;12.60;62.90;;;;;;5002162;28;20022;-71
2021/11/26 12:21:13;;;;;;;4.82;3.03;;;12.50;62.90;;;;;;5017213;28;20262;-72
2021/11/26 12:24:00;;;;;;;4.78;3.38;;;12.60;62.90;;;;;;5000756;28;20240;-71
2021/11/26 12:26:32;;;;;;;4.50;3.42;;;12.60;62.80;;;;;;5017105;28;20097;-71
2021/11/26 12:29:10;;;;;;;3.60;2.90;;;12.60;62.80;;;;;;5002003;28;20042;-70
2021/11/26 12:31:36;;;;;;;3.30;2.53;;;12.60;62.90;;;;;;5017071;28;20018;-71
2021/11/26 12:34:06;;;;;;;3.65;2.95;;;12.60;62.80;;;;;;5001781;28;20048;-72
2021/11/26 12:36:43;;;;;;;3.90;3.13;;;12.60;62.70;;;;;;5001797;28;20018;-71
2021/11/26 12:39:19;;;;;;;3.80;2.95;;;12.60;62.70;;;;;;5016967;28;20022;-72
2021/11/26 12:41:46;;;;;;;3.55;2.95;;;12.60;62.80;;;;;;5000501;28;20424;-71
2021/11/26 12:44:19;;;;;;;4.53;2.90;;;12.60;62.80;;;;;;5001587;28;20316;-72
2021/11/26 12:46:45;;;;;;;3.58;2.95;;;12.60;62.80;;;;;;5001697;28;20022;-71
2021/11/26 12:52:10;;;;;;;3.78;2.88;;;12.60;62.80;;;;;;5001445;28;20290;-71
2021/11/26 12:54:38;;;;;;;3.05;2.75;;;12.50;62.90;;;;;;5001473;28;20022;-71
2021/11/26 12:57:15;;;;;;;3.60;2.88;;;12.50;62.80;;;;;;5001422;28;20045;-71
2021/11/26 12:59:48;;;;;;;3.35;2.90;;;12.60;62.90;;;;;;5001342;28;20077;-71
2021/11/26 13:02:27;;;;;;;4.13;3.35;;;12.50;62.80;;;;;;5001300;28;20026;-71
2021/11/26 13:04:57;;;;;;;;;;;12.50;62.80;;;;;;5016773;28;20034;-71
2021/11/26 13:07:27;;;;;;;3.45;2.90;;;12.60;62.90;;;;;;5016230;28;19941;-71